sensor_id;sensor_type;location;lat;lon;timestamp;P1;durP1;ratioP1;P2;durP2;ratioP2
19971;SDS011;10147;16.402;102.848;2024-02-04T00:01:35;122.53;;;104.22;;
19971;SDS011;10147;16.402;102.848;2024-02-04T00:04:05;126.28;;;105.15;;
19971;SDS011;10147;16.402;102.848;2024-02-04T00:06:35;124.05;;;91.43;;
19971;SDS011;10147;16.402;102.848;2024-02-04T00:09:07;112.75;;;94.57;;
19971;SDS011;10147;16.402;102.848;2024-02-04T00:11:39;104.03;;;82.75;;
19971;SDS011;10147;16.402;102.848;2024-02-04T00:14:09;101.70;;;83.63;;
19971;SDS011;10147;16.402;102.848;2024-02-04T00:16:39;104.65;;;84.07;;
19971;SDS011;10147;16.402;102.848;2024-02-04T00:19:10;116.20;;;93.45;;
19971;SDS011;10147;16.402;102.848;2024-02-04T00:21:43;123.10;;;92.40;;
19971;SDS011;10147;16.402;102.848;2024-02-04T00:24:14;111.10;;;86.47;;
19971;SDS011;10147;16.402;102.848;2024-02-04T00:26:45;114.60;;;86.55;;
19971;SDS011;10147;16.402;102.848;2024-02-04T00:29:15;219.77;;;183.57;;
19971;SDS011;10147;16.402;102.848;2024-02-04T00:31:51;131.88;;;98.13;;
19971;SDS011;10147;16.402;102.848;2024-02-04T00:34:21;123.88;;;98.30;;
19971;SDS011;10147;16.402;102.848;2024-02-04T00:36:52;121.50;;;95.50;;
19971;SDS011;10147;16.402;102.848;2024-02-04T00:39:23;126.40;;;95.40;;
19971;SDS011;10147;16.402;102.848;2024-02-04T00:41:54;116.28;;;92.07;;
19971;SDS011;10147;16.402;102.848;2024-02-04T00:44:24;120.32;;;93.70;;
19971;SDS011;10147;16.402;102.848;2024-02-04T00:46:55;128.88;;;98.35;;
19971;SDS011;10147;16.402;102.848;2024-02-04T00:49:26;120.13;;;92.40;;
19971;SDS011;10147;16.402;102.848;2024-02-04T00:51:57;123.53;;;104.30;;
19971;SDS011;10147;16.402;102.848;2024-02-04T00:54:28;130.35;;;108.88;;
19971;SDS011;10147;16.402;102.848;2024-02-04T00:56:58;139.10;;;111.00;;
19971;SDS011;10147;16.402;102.848;2024-02-04T00:59:29;183.20;;;116.82;;
19971;SDS011;10147;16.402;102.848;2024-02-04T01:01:59;148.40;;;121.10;;
19971;SDS011;10147;16.402;102.848;2024-02-04T01:04:29;126.78;;;104.97;;
19971;SDS011;10147;16.402;102.848;2024-02-04T01:07:00;120.90;;;103.10;;
19971;SDS011;10147;16.402;102.848;2024-02-04T01:09:33;125.07;;;104.55;;
19971;SDS011;10147;16.402;102.848;2024-02-04T01:12:04;125.47;;;104.50;;
19971;SDS011;10147;16.402;102.848;2024-02-04T01:14:35;128.85;;;105.43;;
19971;SDS011;10147;16.402;102.848;2024-02-04T01:17:04;126.30;;;101.88;;
19971;SDS011;10147;16.402;102.848;2024-02-04T01:19:36;118.00;;;99.75;;
19971;SDS011;10147;16.402;102.848;2024-02-04T01:22:07;126.60;;;97.40;;
19971;SDS011;10147;16.402;102.848;2024-02-04T01:24:38;124.18;;;96.25;;
19971;SDS011;10147;16.402;102.848;2024-02-04T01:27:08;122.88;;;96.95;;
19971;SDS011;10147;16.402;102.848;2024-02-04T01:29:38;122.45;;;96.25;;
19971;SDS011;10147;16.402;102.848;2024-02-04T01:32:09;166.55;;;130.82;;
19971;SDS011;10147;16.402;102.848;2024-02-04T01:34:43;125.43;;;97.35;;
19971;SDS011;10147;16.402;102.848;2024-02-04T01:37:16;123.43;;;97.13;;
19971;SDS011;10147;16.402;102.848;2024-02-04T01:39:47;122.85;;;94.97;;
19971;SDS011;10147;16.402;102.848;2024-02-04T01:42:19;116.05;;;95.40;;
19971;SDS011;10147;16.402;102.848;2024-02-04T01:44:50;125.55;;;95.18;;
19971;SDS011;10147;16.402;102.848;2024-02-04T01:47:23;111.07;;;89.05;;
19971;SDS011;10147;16.402;102.848;2024-02-04T01:49:55;111.05;;;88.55;;
19971;SDS011;10147;16.402;102.848;2024-02-04T01:52:26;112.45;;;86.20;;
19971;SDS011;10147;16.402;102.848;2024-02-04T01:54:59;115.97;;;90.88;;
19971;SDS011;10147;16.402;102.848;2024-02-04T01:57:31;112.00;;;90.25;;
19971;SDS011;10147;16.402;102.848;2024-02-04T02:00:05;114.30;;;88.35;;
19971;SDS011;10147;16.402;102.848;2024-02-04T02:02:41;125.45;;;100.10;;
19971;SDS011;10147;16.402;102.848;2024-02-04T02:05:12;110.22;;;87.93;;
19971;SDS011;10147;16.402;102.848;2024-02-04T02:07:43;104.53;;;84.72;;
19971;SDS011;10147;16.402;102.848;2024-02-04T02:10:15;101.40;;;84.05;;
19971;SDS011;10147;16.402;102.848;2024-02-04T02:12:48;97.93;;;82.57;;
19971;SDS011;10147;16.402;102.848;2024-02-04T02:15:32;108.90;;;81.63;;
19971;SDS011;10147;16.402;102.848;2024-02-04T02:18:10;99.88;;;80.68;;
19971;SDS011;10147;16.402;102.848;2024-02-04T02:20:54;100.03;;;82.43;;
19971;SDS011;10147;16.402;102.848;2024-02-04T02:26:58;95.80;;;76.45;;
19971;SDS011;10147;16.402;102.848;2024-02-04T02:29:30;95.32;;;79.20;;
19971;SDS011;10147;16.402;102.848;2024-02-04T02:32:08;92.07;;;74.85;;
19971;SDS011;10147;16.402;102.848;2024-02-04T02:34:38;88.68;;;72.05;;
19971;SDS011;10147;16.402;102.848;2024-02-04T02:37:20;81.07;;;71.55;;
19971;SDS011;10147;16.402;102.848;2024-02-04T02:40:14;82.15;;;67.35;;
19971;SDS011;10147;16.402;102.848;2024-02-04T02:42:55;70.38;;;62.33;;
19971;SDS011;10147;16.402;102.848;2024-02-04T02:45:27;70.00;;;62.10;;
19971;SDS011;10147;16.402;102.848;2024-02-04T02:47:57;78.97;;;66.50;;
19971;SDS011;10147;16.402;102.848;2024-02-04T02:50:29;73.65;;;63.83;;
19971;SDS011;10147;16.402;102.848;2024-02-04T02:53:00;76.55;;;62.55;;
19971;SDS011;10147;16.402;102.848;2024-02-04T02:55:32;74.22;;;62.05;;
19971;SDS011;10147;16.402;102.848;2024-02-04T02:58:02;73.20;;;61.20;;
19971;SDS011;10147;16.402;102.848;2024-02-04T03:00:34;69.63;;;61.97;;
19971;SDS011;10147;16.402;102.848;2024-02-04T03:03:04;72.55;;;62.20;;
19971;SDS011;10147;16.402;102.848;2024-02-04T03:05:35;69.63;;;60.25;;
19971;SDS011;10147;16.402;102.848;2024-02-04T03:08:06;71.10;;;63.35;;
19971;SDS011;10147;16.402;102.848;2024-02-04T03:10:38;78.15;;;64.10;;
19971;SDS011;10147;16.402;102.848;2024-02-04T03:13:08;75.10;;;65.93;;
19971;SDS011;10147;16.402;102.848;2024-02-04T03:15:40;78.57;;;66.85;;
19971;SDS011;10147;16.402;102.848;2024-02-04T03:18:13;77.78;;;69.60;;
19971;SDS011;10147;16.402;102.848;2024-02-04T03:20:43;73.47;;;64.32;;
19971;SDS011;10147;16.402;102.848;2024-02-04T03:23:15;80.50;;;72.03;;
19971;SDS011;10147;16.402;102.848;2024-02-04T03:25:45;85.28;;;71.15;;
19971;SDS011;10147;16.402;102.848;2024-02-04T03:28:16;89.13;;;79.45;;
19971;SDS011;10147;16.402;102.848;2024-02-04T03:30:47;78.47;;;64.32;;
19971;SDS011;10147;16.402;102.848;2024-02-04T03:33:17;76.28;;;60.45;;
19971;SDS011;10147;16.402;102.848;2024-02-04T03:35:48;68.70;;;61.17;;
19971;SDS011;10147;16.402;102.848;2024-02-04T03:38:18;67.78;;;58.13;;
19971;SDS011;10147;16.402;102.848;2024-02-04T03:40:52;64.22;;;54.38;;
19971;SDS011;10147;16.402;102.848;2024-02-04T03:43:26;69.82;;;56.03;;
19971;SDS011;10147;16.402;102.848;2024-02-04T03:45:57;65.20;;;54.85;;
19971;SDS011;10147;16.402;102.848;2024-02-04T03:48:29;75.45;;;67.35;;
19971;SDS011;10147;16.402;102.848;2024-02-04T03:51:00;80.97;;;72.60;;
19971;SDS011;10147;16.402;102.848;2024-02-04T03:53:33;82.30;;;73.60;;
19971;SDS011;10147;16.402;102.848;2024-02-04T03:56:03;66.43;;;59.53;;
19971;SDS011;10147;16.402;102.848;2024-02-04T03:58:34;76.93;;;61.33;;
19971;SDS011;10147;16.402;102.848;2024-02-04T04:01:04;80.60;;;69.80;;
19971;SDS011;10147;16.402;102.848;2024-02-04T04:03:34;69.82;;;62.05;;
19971;SDS011;10147;16.402;102.848;2024-02-04T04:06:06;66.47;;;52.47;;
19971;SDS011;10147;16.402;102.848;2024-02-04T04:08:38;55.72;;;44.80;;
19971;SDS011;10147;16.402;102.848;2024-02-04T04:11:08;46.55;;;41.58;;
19971;SDS011;10147;16.402;102.848;2024-02-04T04:13:41;53.83;;;47.53;;
19971;SDS011;10147;16.402;102.848;2024-02-04T04:16:11;50.85;;;42.95;;
19971;SDS011;10147;16.402;102.848;2024-02-04T04:18:42;61.28;;;55.08;;
19971;SDS011;10147;16.402;102.848;2024-02-04T04:21:12;65.28;;;58.72;;
19971;SDS011;10147;16.402;102.848;2024-02-04T04:23:42;55.00;;;49.13;;
19971;SDS011;10147;16.402;102.848;2024-02-04T04:26:13;53.10;;;47.47;;
19971;SDS011;10147;16.402;102.848;2024-02-04T04:28:44;53.00;;;47.20;;
19971;SDS011;10147;16.402;102.848;2024-02-04T04:31:14;54.30;;;48.38;;
19971;SDS011;10147;16.402;102.848;2024-02-04T04:33:45;51.20;;;45.20;;
19971;SDS011;10147;16.402;102.848;2024-02-04T04:36:15;52.72;;;47.10;;
19971;SDS011;10147;16.402;102.848;2024-02-04T04:38:50;57.03;;;47.38;;
19971;SDS011;10147;16.402;102.848;2024-02-04T04:41:20;50.50;;;45.03;;
19971;SDS011;10147;16.402;102.848;2024-02-04T04:43:52;44.58;;;39.65;;
19971;SDS011;10147;16.402;102.848;2024-02-04T04:46:23;42.90;;;38.40;;
19971;SDS011;10147;16.402;102.848;2024-02-04T04:48:53;43.85;;;39.40;;
19971;SDS011;10147;16.402;102.848;2024-02-04T04:51:28;44.03;;;37.90;;
19971;SDS011;10147;16.402;102.848;2024-02-04T04:53:59;41.95;;;37.45;;
19971;SDS011;10147;16.402;102.848;2024-02-04T04:56:29;41.20;;;36.60;;
19971;SDS011;10147;16.402;102.848;2024-02-04T04:59:00;56.70;;;51.13;;
19971;SDS011;10147;16.402;102.848;2024-02-04T05:01:29;53.47;;;48.28;;
19971;SDS011;10147;16.402;102.848;2024-02-04T05:04:00;54.58;;;49.42;;
19971;SDS011;10147;16.402;102.848;2024-02-04T05:06:32;43.80;;;39.15;;
19971;SDS011;10147;16.402;102.848;2024-02-04T05:09:03;41.85;;;34.78;;
19971;SDS011;10147;16.402;102.848;2024-02-04T05:11:33;36.78;;;33.08;;
19971;SDS011;10147;16.402;102.848;2024-02-04T05:14:04;37.00;;;33.03;;
19971;SDS011;10147;16.402;102.848;2024-02-04T05:16:35;37.53;;;33.45;;
19971;SDS011;10147;16.402;102.848;2024-02-04T05:19:08;35.30;;;31.50;;
19971;SDS011;10147;16.402;102.848;2024-02-04T05:21:42;35.22;;;31.48;;
19971;SDS011;10147;16.402;102.848;2024-02-04T05:24:13;36.35;;;32.47;;
19971;SDS011;10147;16.402;102.848;2024-02-04T05:26:43;35.67;;;28.95;;
19971;SDS011;10147;16.402;102.848;2024-02-04T05:29:13;33.42;;;29.95;;
19971;SDS011;10147;16.402;102.848;2024-02-04T05:31:44;35.88;;;32.30;;
19971;SDS011;10147;16.402;102.848;2024-02-04T05:34:15;33.33;;;29.70;;
19971;SDS011;10147;16.402;102.848;2024-02-04T05:36:48;32.65;;;29.30;;
19971;SDS011;10147;16.402;102.848;2024-02-04T05:39:18;35.65;;;30.25;;
19971;SDS011;10147;16.402;102.848;2024-02-04T05:41:48;34.40;;;28.23;;
19971;SDS011;10147;16.402;102.848;2024-02-04T05:44:20;32.80;;;28.55;;
19971;SDS011;10147;16.402;102.848;2024-02-04T05:46:51;33.30;;;29.55;;
19971;SDS011;10147;16.402;102.848;2024-02-04T05:49:25;33.65;;;30.15;;
19971;SDS011;10147;16.402;102.848;2024-02-04T05:51:57;33.30;;;30.02;;
19971;SDS011;10147;16.402;102.848;2024-02-04T05:54:26;32.85;;;29.55;;
19971;SDS011;10147;16.402;102.848;2024-02-04T05:56:56;33.70;;;29.90;;
19971;SDS011;10147;16.402;102.848;2024-02-04T05:59:30;32.90;;;29.60;;
19971;SDS011;10147;16.402;102.848;2024-02-04T06:02:00;31.10;;;27.85;;
19971;SDS011;10147;16.402;102.848;2024-02-04T06:04:30;40.33;;;28.73;;
19971;SDS011;10147;16.402;102.848;2024-02-04T06:07:01;32.42;;;28.98;;
19971;SDS011;10147;16.402;102.848;2024-02-04T06:09:33;30.13;;;26.92;;
19971;SDS011;10147;16.402;102.848;2024-02-04T06:12:04;39.80;;;30.58;;
19971;SDS011;10147;16.402;102.848;2024-02-04T06:14:35;33.63;;;29.17;;
19971;SDS011;10147;16.402;102.848;2024-02-04T06:17:09;31.45;;;28.25;;
19971;SDS011;10147;16.402;102.848;2024-02-04T06:19:38;31.58;;;28.27;;
19971;SDS011;10147;16.402;102.848;2024-02-04T06:22:09;31.98;;;28.55;;
19971;SDS011;10147;16.402;102.848;2024-02-04T06:24:39;31.52;;;28.25;;
19971;SDS011;10147;16.402;102.848;2024-02-04T06:27:10;32.83;;;29.38;;
19971;SDS011;10147;16.402;102.848;2024-02-04T06:29:41;31.50;;;28.13;;
19971;SDS011;10147;16.402;102.848;2024-02-04T06:32:11;31.48;;;28.20;;
19971;SDS011;10147;16.402;102.848;2024-02-04T06:34:42;30.38;;;27.25;;
19971;SDS011;10147;16.402;102.848;2024-02-04T06:37:13;31.75;;;25.95;;
19971;SDS011;10147;16.402;102.848;2024-02-04T06:39:43;30.42;;;26.80;;
19971;SDS011;10147;16.402;102.848;2024-02-04T06:42:14;31.02;;;27.67;;
19971;SDS011;10147;16.402;102.848;2024-02-04T06:44:46;30.58;;;27.25;;
19971;SDS011;10147;16.402;102.848;2024-02-04T06:47:17;30.38;;;27.27;;
19971;SDS011;10147;16.402;102.848;2024-02-04T06:49:47;30.20;;;26.98;;
19971;SDS011;10147;16.402;102.848;2024-02-04T06:52:18;39.50;;;35.70;;
19971;SDS011;10147;16.402;102.848;2024-02-04T06:54:49;46.00;;;41.42;;
19971;SDS011;10147;16.402;102.848;2024-02-04T06:57:19;32.35;;;27.75;;
19971;SDS011;10147;16.402;102.848;2024-02-04T06:59:50;32.03;;;28.80;;
19971;SDS011;10147;16.402;102.848;2024-02-04T07:02:20;30.58;;;27.45;;
19971;SDS011;10147;16.402;102.848;2024-02-04T07:04:51;31.63;;;28.27;;
19971;SDS011;10147;16.402;102.848;2024-02-04T07:07:22;36.80;;;28.05;;
19971;SDS011;10147;16.402;102.848;2024-02-04T07:09:52;31.63;;;28.05;;
19971;SDS011;10147;16.402;102.848;2024-02-04T07:12:24;32.28;;;29.08;;
19971;SDS011;10147;16.402;102.848;2024-02-04T07:14:55;30.90;;;27.60;;
19971;SDS011;10147;16.402;102.848;2024-02-04T07:17:25;30.83;;;27.75;;
19971;SDS011;10147;16.402;102.848;2024-02-04T07:19:56;32.65;;;29.20;;
19971;SDS011;10147;16.402;102.848;2024-02-04T07:22:35;32.58;;;29.15;;
19971;SDS011;10147;16.402;102.848;2024-02-04T07:25:08;33.75;;;30.10;;
19971;SDS011;10147;16.402;102.848;2024-02-04T07:27:40;29.60;;;26.58;;
19971;SDS011;10147;16.402;102.848;2024-02-04T07:30:10;29.98;;;27.05;;
19971;SDS011;10147;16.402;102.848;2024-02-04T07:32:40;30.77;;;27.67;;
19971;SDS011;10147;16.402;102.848;2024-02-04T07:35:11;30.27;;;27.30;;
19971;SDS011;10147;16.402;102.848;2024-02-04T07:37:41;30.23;;;27.00;;
19971;SDS011;10147;16.402;102.848;2024-02-04T07:40:12;29.58;;;26.48;;
19971;SDS011;10147;16.402;102.848;2024-02-04T07:42:43;28.63;;;25.40;;
19971;SDS011;10147;16.402;102.848;2024-02-04T07:45:14;31.17;;;25.48;;
19971;SDS011;10147;16.402;102.848;2024-02-04T07:47:45;28.25;;;25.55;;
19971;SDS011;10147;16.402;102.848;2024-02-04T07:50:15;28.95;;;26.00;;
19971;SDS011;10147;16.402;102.848;2024-02-04T07:52:46;28.20;;;25.27;;
19971;SDS011;10147;16.402;102.848;2024-02-04T07:55:16;28.67;;;25.65;;
19971;SDS011;10147;16.402;102.848;2024-02-04T07:57:46;29.40;;;26.60;;
19971;SDS011;10147;16.402;102.848;2024-02-04T08:00:16;31.38;;;25.35;;
19971;SDS011;10147;16.402;102.848;2024-02-04T08:02:47;28.95;;;25.88;;
19971;SDS011;10147;16.402;102.848;2024-02-04T08:05:17;27.05;;;24.40;;
19971;SDS011;10147;16.402;102.848;2024-02-04T08:07:47;29.27;;;26.17;;
19971;SDS011;10147;16.402;102.848;2024-02-04T08:10:17;27.85;;;25.25;;
19971;SDS011;10147;16.402;102.848;2024-02-04T08:12:47;28.77;;;24.20;;
19971;SDS011;10147;16.402;102.848;2024-02-04T08:15:20;27.75;;;25.00;;
19971;SDS011;10147;16.402;102.848;2024-02-04T08:17:50;27.73;;;24.85;;
19971;SDS011;10147;16.402;102.848;2024-02-04T08:20:20;28.73;;;25.67;;
19971;SDS011;10147;16.402;102.848;2024-02-04T08:22:51;26.73;;;24.15;;
19971;SDS011;10147;16.402;102.848;2024-02-04T08:25:24;26.38;;;23.55;;
19971;SDS011;10147;16.402;102.848;2024-02-04T08:27:57;29.55;;;26.85;;
19971;SDS011;10147;16.402;102.848;2024-02-04T08:30:29;29.60;;;26.60;;
19971;SDS011;10147;16.402;102.848;2024-02-04T08:33:01;26.00;;;23.60;;
19971;SDS011;10147;16.402;102.848;2024-02-04T08:35:33;26.67;;;23.98;;
19971;SDS011;10147;16.402;102.848;2024-02-04T08:38:07;26.45;;;23.75;;
19971;SDS011;10147;16.402;102.848;2024-02-04T08:40:38;25.40;;;22.58;;
19971;SDS011;10147;16.402;102.848;2024-02-04T08:43:10;26.52;;;22.83;;
19971;SDS011;10147;16.402;102.848;2024-02-04T08:45:43;26.80;;;24.13;;
19971;SDS011;10147;16.402;102.848;2024-02-04T08:48:14;26.38;;;23.70;;
19971;SDS011;10147;16.402;102.848;2024-02-04T08:50:44;29.52;;;26.48;;
19971;SDS011;10147;16.402;102.848;2024-02-04T08:53:15;27.42;;;24.65;;
19971;SDS011;10147;16.402;102.848;2024-02-04T08:55:45;28.98;;;25.95;;
19971;SDS011;10147;16.402;102.848;2024-02-04T08:58:19;28.15;;;25.27;;
19971;SDS011;10147;16.402;102.848;2024-02-04T09:00:49;29.67;;;26.73;;
19971;SDS011;10147;16.402;102.848;2024-02-04T09:03:19;29.05;;;26.25;;
19971;SDS011;10147;16.402;102.848;2024-02-04T09:05:49;35.33;;;31.92;;
19971;SDS011;10147;16.402;102.848;2024-02-04T09:08:19;34.17;;;30.95;;
19971;SDS011;10147;16.402;102.848;2024-02-04T09:10:49;34.70;;;31.38;;
19971;SDS011;10147;16.402;102.848;2024-02-04T09:13:20;35.42;;;32.03;;
19971;SDS011;10147;16.402;102.848;2024-02-04T09:15:50;34.30;;;31.10;;
19971;SDS011;10147;16.402;102.848;2024-02-04T09:18:20;35.58;;;32.65;;
19971;SDS011;10147;16.402;102.848;2024-02-04T09:20:51;34.30;;;30.98;;
19971;SDS011;10147;16.402;102.848;2024-02-04T09:23:21;43.53;;;39.63;;
19971;SDS011;10147;16.402;102.848;2024-02-04T09:25:51;29.25;;;26.08;;
19971;SDS011;10147;16.402;102.848;2024-02-04T09:28:21;29.48;;;26.60;;
19971;SDS011;10147;16.402;102.848;2024-02-04T09:30:51;30.02;;;26.45;;
19971;SDS011;10147;16.402;102.848;2024-02-04T09:33:21;31.65;;;28.30;;
19971;SDS011;10147;16.402;102.848;2024-02-04T09:35:53;30.20;;;27.05;;
19971;SDS011;10147;16.402;102.848;2024-02-04T09:38:23;28.92;;;26.02;;
19971;SDS011;10147;16.402;102.848;2024-02-04T09:40:53;30.15;;;26.98;;
19971;SDS011;10147;16.402;102.848;2024-02-04T09:43:24;30.00;;;26.70;;
19971;SDS011;10147;16.402;102.848;2024-02-04T09:45:57;29.95;;;26.30;;
19971;SDS011;10147;16.402;102.848;2024-02-04T09:48:32;31.02;;;26.02;;
19971;SDS011;10147;16.402;102.848;2024-02-04T09:51:03;29.45;;;26.30;;
19971;SDS011;10147;16.402;102.848;2024-02-04T09:53:42;29.40;;;26.35;;
19971;SDS011;10147;16.402;102.848;2024-02-04T09:56:14;35.55;;;29.20;;
19971;SDS011;10147;16.402;102.848;2024-02-04T09:58:45;35.38;;;31.70;;
19971;SDS011;10147;16.402;102.848;2024-02-04T10:01:15;35.97;;;30.02;;
19971;SDS011;10147;16.402;102.848;2024-02-04T10:03:48;36.42;;;32.10;;
19971;SDS011;10147;16.402;102.848;2024-02-04T10:06:18;37.20;;;30.50;;
19971;SDS011;10147;16.402;102.848;2024-02-04T10:08:49;33.17;;;29.73;;
19971;SDS011;10147;16.402;102.848;2024-02-04T10:11:20;37.47;;;29.48;;
19971;SDS011;10147;16.402;102.848;2024-02-04T10:13:50;42.67;;;29.67;;
19971;SDS011;10147;16.402;102.848;2024-02-04T10:16:20;31.65;;;28.23;;
19971;SDS011;10147;16.402;102.848;2024-02-04T10:18:51;33.50;;;27.73;;
19971;SDS011;10147;16.402;102.848;2024-02-04T10:21:25;33.67;;;28.10;;
19971;SDS011;10147;16.402;102.848;2024-02-04T10:23:55;36.83;;;29.17;;
19971;SDS011;10147;16.402;102.848;2024-02-04T10:26:29;31.92;;;28.63;;
19971;SDS011;10147;16.402;102.848;2024-02-04T10:29:00;36.85;;;29.45;;
19971;SDS011;10147;16.402;102.848;2024-02-04T10:31:31;35.53;;;29.08;;
19971;SDS011;10147;16.402;102.848;2024-02-04T10:34:02;33.75;;;29.90;;
19971;SDS011;10147;16.402;102.848;2024-02-04T10:36:35;34.55;;;30.33;;
19971;SDS011;10147;16.402;102.848;2024-02-04T10:39:05;34.75;;;31.35;;
19971;SDS011;10147;16.402;102.848;2024-02-04T10:41:35;35.28;;;31.45;;
19971;SDS011;10147;16.402;102.848;2024-02-04T10:44:23;35.75;;;31.90;;
19971;SDS011;10147;16.402;102.848;2024-02-04T10:46:59;38.30;;;31.17;;
19971;SDS011;10147;16.402;102.848;2024-02-04T10:49:34;36.05;;;30.77;;
19971;SDS011;10147;16.402;102.848;2024-02-04T10:52:10;42.13;;;31.30;;
19971;SDS011;10147;16.402;102.848;2024-02-04T10:54:42;36.30;;;30.02;;
19971;SDS011;10147;16.402;102.848;2024-02-04T10:57:17;34.03;;;30.42;;
19971;SDS011;10147;16.402;102.848;2024-02-04T10:59:51;37.83;;;31.17;;
19971;SDS011;10147;16.402;102.848;2024-02-04T11:02:22;54.75;;;44.80;;
19971;SDS011;10147;16.402;102.848;2024-02-04T11:04:53;53.55;;;39.58;;
19971;SDS011;10147;16.402;102.848;2024-02-04T11:07:24;51.03;;;37.08;;
19971;SDS011;10147;16.402;102.848;2024-02-04T11:09:57;65.65;;;36.78;;
19971;SDS011;10147;16.402;102.848;2024-02-04T11:12:31;52.60;;;34.35;;
19971;SDS011;10147;16.402;102.848;2024-02-04T11:15:05;54.22;;;35.30;;
19971;SDS011;10147;16.402;102.848;2024-02-04T11:27:03;66.90;;;46.72;;
19971;SDS011;10147;16.402;102.848;2024-02-04T11:29:34;63.72;;;46.10;;
19971;SDS011;10147;16.402;102.848;2024-02-04T11:32:05;76.68;;;49.58;;
19971;SDS011;10147;16.402;102.848;2024-02-04T11:34:40;64.88;;;48.90;;
19971;SDS011;10147;16.402;102.848;2024-02-04T11:37:18;72.30;;;49.10;;
19971;SDS011;10147;16.402;102.848;2024-02-04T11:39:53;76.20;;;49.55;;
19971;SDS011;10147;16.402;102.848;2024-02-04T11:42:25;70.65;;;52.20;;
19971;SDS011;10147;16.402;102.848;2024-02-04T11:45:07;70.10;;;49.28;;
19971;SDS011;10147;16.402;102.848;2024-02-04T11:47:40;67.50;;;51.65;;
19971;SDS011;10147;16.402;102.848;2024-02-04T11:50:11;68.97;;;50.80;;
19971;SDS011;10147;16.402;102.848;2024-02-04T11:52:42;67.45;;;51.40;;
19971;SDS011;10147;16.402;102.848;2024-02-04T11:55:14;63.90;;;49.03;;
19971;SDS011;10147;16.402;102.848;2024-02-04T11:57:45;62.55;;;49.60;;
19971;SDS011;10147;16.402;102.848;2024-02-04T12:00:15;70.72;;;50.53;;
19971;SDS011;10147;16.402;102.848;2024-02-04T12:02:47;55.13;;;45.35;;
19971;SDS011;10147;16.402;102.848;2024-02-04T12:05:17;55.65;;;44.80;;
19971;SDS011;10147;16.402;102.848;2024-02-04T12:07:48;60.28;;;43.40;;
19971;SDS011;10147;16.402;102.848;2024-02-04T12:10:20;61.83;;;44.45;;
19971;SDS011;10147;16.402;102.848;2024-02-04T12:12:52;63.92;;;43.35;;
19971;SDS011;10147;16.402;102.848;2024-02-04T12:15:22;58.85;;;43.25;;
19971;SDS011;10147;16.402;102.848;2024-02-04T12:17:53;56.60;;;43.53;;
19971;SDS011;10147;16.402;102.848;2024-02-04T12:20:25;65.57;;;48.42;;
19971;SDS011;10147;16.402;102.848;2024-02-04T12:22:56;63.20;;;46.10;;
19971;SDS011;10147;16.402;102.848;2024-02-04T12:25:27;66.00;;;46.15;;
19971;SDS011;10147;16.402;102.848;2024-02-04T12:27:59;60.72;;;48.65;;
19971;SDS011;10147;16.402;102.848;2024-02-04T12:30:34;58.58;;;45.15;;
19971;SDS011;10147;16.402;102.848;2024-02-04T12:33:04;54.85;;;43.80;;
19971;SDS011;10147;16.402;102.848;2024-02-04T12:35:36;52.47;;;46.22;;
19971;SDS011;10147;16.402;102.848;2024-02-04T12:38:08;53.90;;;42.70;;
19971;SDS011;10147;16.402;102.848;2024-02-04T12:40:38;47.72;;;40.42;;
19971;SDS011;10147;16.402;102.848;2024-02-04T12:43:10;54.42;;;44.58;;
19971;SDS011;10147;16.402;102.848;2024-02-04T12:45:41;56.15;;;43.72;;
19971;SDS011;10147;16.402;102.848;2024-02-04T12:48:15;68.25;;;50.45;;
19971;SDS011;10147;16.402;102.848;2024-02-04T12:50:47;85.93;;;57.50;;
19971;SDS011;10147;16.402;102.848;2024-02-04T12:53:18;73.85;;;57.30;;
19971;SDS011;10147;16.402;102.848;2024-02-04T12:55:57;52.92;;;41.42;;
19971;SDS011;10147;16.402;102.848;2024-02-04T12:58:29;52.38;;;41.47;;
19971;SDS011;10147;16.402;102.848;2024-02-04T13:01:00;50.33;;;39.45;;
19971;SDS011;10147;16.402;102.848;2024-02-04T13:03:31;52.15;;;39.05;;
19971;SDS011;10147;16.402;102.848;2024-02-04T13:06:02;52.15;;;40.17;;
19971;SDS011;10147;16.402;102.848;2024-02-04T13:08:32;51.55;;;40.75;;
19971;SDS011;10147;16.402;102.848;2024-02-04T13:11:03;52.28;;;41.05;;
19971;SDS011;10147;16.402;102.848;2024-02-04T13:13:33;48.70;;;41.47;;
19971;SDS011;10147;16.402;102.848;2024-02-04T13:16:03;65.65;;;46.65;;
19971;SDS011;10147;16.402;102.848;2024-02-04T13:18:33;60.55;;;48.03;;
19971;SDS011;10147;16.402;102.848;2024-02-04T13:21:04;69.20;;;57.90;;
19971;SDS011;10147;16.402;102.848;2024-02-04T13:23:40;69.85;;;55.75;;
19971;SDS011;10147;16.402;102.848;2024-02-04T13:26:12;55.70;;;44.92;;
19971;SDS011;10147;16.402;102.848;2024-02-04T13:28:46;58.50;;;44.65;;
19971;SDS011;10147;16.402;102.848;2024-02-04T13:31:16;64.63;;;44.72;;
19971;SDS011;10147;16.402;102.848;2024-02-04T13:33:50;48.92;;;43.25;;
19971;SDS011;10147;16.402;102.848;2024-02-04T13:36:22;57.97;;;44.53;;
19971;SDS011;10147;16.402;102.848;2024-02-04T13:38:53;157.48;;;140.02;;
19971;SDS011;10147;16.402;102.848;2024-02-04T13:41:23;60.28;;;50.95;;
19971;SDS011;10147;16.402;102.848;2024-02-04T13:43:53;52.47;;;43.38;;
19971;SDS011;10147;16.402;102.848;2024-02-04T13:46:25;51.42;;;41.03;;
19971;SDS011;10147;16.402;102.848;2024-02-04T13:48:58;51.55;;;41.40;;
19971;SDS011;10147;16.402;102.848;2024-02-04T13:51:30;52.28;;;40.45;;
19971;SDS011;10147;16.402;102.848;2024-02-04T13:54:11;46.67;;;38.13;;
19971;SDS011;10147;16.402;102.848;2024-02-04T13:56:45;52.63;;;39.15;;
19971;SDS011;10147;16.402;102.848;2024-02-04T13:59:17;45.90;;;39.05;;
19971;SDS011;10147;16.402;102.848;2024-02-04T14:01:51;47.80;;;36.47;;
19971;SDS011;10147;16.402;102.848;2024-02-04T14:04:29;45.47;;;34.85;;
19971;SDS011;10147;16.402;102.848;2024-02-04T14:07:03;42.20;;;34.90;;
19971;SDS011;10147;16.402;102.848;2024-02-04T14:09:34;42.60;;;32.47;;
19971;SDS011;10147;16.402;102.848;2024-02-04T14:12:09;45.92;;;35.53;;
19971;SDS011;10147;16.402;102.848;2024-02-04T14:14:43;53.85;;;41.13;;
19971;SDS011;10147;16.402;102.848;2024-02-04T14:17:16;44.28;;;34.95;;
19971;SDS011;10147;16.402;102.848;2024-02-04T14:19:47;65.10;;;44.88;;
19971;SDS011;10147;16.402;102.848;2024-02-04T14:22:20;50.75;;;43.22;;
19971;SDS011;10147;16.402;102.848;2024-02-04T14:24:51;67.68;;;60.90;;
19971;SDS011;10147;16.402;102.848;2024-02-04T14:27:22;38.45;;;33.10;;
19971;SDS011;10147;16.402;102.848;2024-02-04T14:29:53;44.88;;;33.80;;
19971;SDS011;10147;16.402;102.848;2024-02-04T14:32:25;47.90;;;34.15;;